Time;durP1;ratioP1;P1;durP2;ratioP2;P2;SDS_P1;SDS_P2;PMS_P1;PMS_P2;Temp;Humidity;BMP_temperature;BMP_pressure;BME280_temperature;BME280_humidity;BME280_pressure;Samples;Min_cycle;Max_cycle;Signal;HPM_P1;HPM_P2
2023/03/30 00:00:19;;;;;;;5.40;3.17;;;13.70;99.90;;;;;;5094538;28;20296;-59
2023/03/30 00:02:49;;;;;;;4.10;1.67;;;13.70;17.90;;;;;;5096109;28;20233;-59
2023/03/30 00:05:17;;;;;;;4.07;2.10;;;13.80;1.00;;;;;;5092907;28;20200;-59
2023/03/30 00:07:45;;;;;;;5.73;2.50;;;13.80;1.00;;;;;;5095829;28;20572;-59
2023/03/30 00:10:16;;;;;;;3.13;2.20;;;13.80;1.00;;;;;;5079694;28;20198;-59
2023/03/30 00:12:45;;;;;;;3.40;2.30;;;13.80;1.00;;;;;;5096882;28;20339;-59
2023/03/30 00:15:15;;;;;;;5.00;2.47;;;13.70;1.00;;;;;;5091134;28;20197;-59
2023/03/30 00:17:42;;;;;;;5.67;2.40;;;13.80;1.00;;;;;;5096450;28;20681;-59
2023/03/30 00:20:11;;;;;;;3.47;1.60;;;13.80;1.00;;;;;;5095155;28;20727;-59
2023/03/30 00:22:45;;;;;;;2.03;1.77;;;13.80;1.00;;;;;;5097962;28;20194;-59
2023/03/30 00:25:16;;;;;;;4.00;2.20;;;13.90;1.00;;;;;;5098200;28;20677;-60
2023/03/30 00:27:43;;;;;;;9.43;2.00;;;13.90;1.00;;;;;;5098731;28;20197;-59
2023/03/30 00:30:14;;;;;;;2.33;0.80;;;13.90;1.00;;;;;;5100492;28;20959;-59
2023/03/30 00:32:42;;;;;;;5.20;2.47;;;13.90;1.00;;;;;;5092727;28;20737;-59
2023/03/30 00:35:11;;;;;;;5.83;1.90;;;14.00;1.00;;;;;;5095316;28;20729;-59
2023/03/30 00:37:38;;;;;;;3.17;1.70;;;14.00;1.00;;;;;;5082519;28;20196;-59
2023/03/30 00:40:08;;;;;;;5.17;1.80;;;14.10;1.00;;;;;;5078516;28;20255;-59
2023/03/30 00:42:35;;;;;;;6.50;2.17;;;14.10;1.00;;;;;;5099869;27;20200;-59
2023/03/30 00:45:15;;;;;;;3.20;1.40;;;14.20;99.90;;;;;;5097363;27;20216;-59
2023/03/30 00:47:51;;;;;;;5.80;1.53;;;14.30;99.90;;;;;;5102142;28;20232;-59
2023/03/30 00:50:20;;;;;;;3.37;1.93;;;14.40;99.90;;;;;;5096014;28;20681;-59
2023/03/30 00:52:51;;;;;;;4.90;1.67;;;14.40;99.90;;;;;;5096316;28;20236;-60
2023/03/30 00:55:21;;;;;;;2.90;1.33;;;14.40;99.90;;;;;;5090047;27;20324;-62
2023/03/30 00:57:50;;;;;;;5.23;1.77;;;14.40;99.90;;;;;;5096226;28;20198;-60
2023/03/30 01:00:18;;;;;;;4.03;1.93;;;14.40;99.90;;;;;;5099032;27;20205;-59
2023/03/30 01:02:54;;;;;;;2.50;1.50;;;14.30;99.90;;;;;;5098766;28;20287;-59
2023/03/30 01:05:23;;;;;;;5.60;1.70;;;14.40;99.90;;;;;;5095922;28;20213;-60
2023/03/30 01:07:51;;;;;;;3.40;1.90;;;14.30;99.90;;;;;;5101547;28;20198;-60
2023/03/30 01:10:18;;;;;;;4.97;1.70;;;14.30;99.90;;;;;;5097408;28;20205;-59
2023/03/30 01:12:46;;;;;;;6.77;1.80;;;14.30;99.90;;;;;;5094787;28;20197;-60
2023/03/30 01:15:15;;;;;;;3.83;1.60;;;14.20;99.90;;;;;;5096275;27;20750;-60
2023/03/30 01:17:45;;;;;;;2.33;1.50;;;14.20;99.90;;;;;;5095299;28;20225;-60
2023/03/30 01:20:31;;;;;;;4.83;1.70;;;14.30;99.90;;;;;;5098259;28;20253;-60
2023/03/30 01:23:11;;;;;;;3.43;1.63;;;14.20;99.90;;;;;;5099898;28;20665;-60
2023/03/30 01:26:16;;;;;;;3.30;1.43;;;14.20;99.90;;;;;;5098727;28;20199;-59
2023/03/30 01:28:54;;;;;;;5.77;1.60;;;14.30;99.90;;;;;;5083721;28;20208;-60
2023/03/30 01:31:50;;;;;;;3.03;1.50;;;14.30;99.90;;;;;;5097468;28;20231;-60
2023/03/30 01:34:35;;;;;;;2.80;1.30;;;14.50;99.90;;;;;;5098204;28;20738;-60
2023/03/30 01:37:03;;;;;;;3.43;0.90;;;14.70;99.90;;;;;;5091659;28;20926;-60
2023/03/30 01:39:40;;;;;;;2.53;1.20;;;14.80;99.90;;;;;;5099198;28;20277;-60
2023/03/30 01:42:31;;;;;;;2.07;1.57;;;14.90;99.90;;;;;;5088400;28;20320;-60
2023/03/30 01:45:18;;;;;;;4.17;1.20;;;14.90;99.90;;;;;;5098405;28;20247;-61
2023/03/30 01:48:03;;;;;;;2.70;1.13;;;14.90;99.90;;;;;;5098916;28;20209;-61
2023/03/30 01:50:41;;;;;;;4.47;1.10;;;14.80;99.90;;;;;;5097035;28;20198;-60
2023/03/30 01:53:18;;;;;;;4.70;1.20;;;14.90;99.90;;;;;;5100315;28;20285;-65
2023/03/30 01:55:45;;;;;;;4.80;1.00;;;14.90;99.90;;;;;;5097733;28;20234;-60
2023/03/30 01:58:26;;;;;;;5.03;1.43;;;14.80;99.90;;;;;;5096443;28;20284;-60
2023/03/30 02:00:54;;;;;;;2.27;1.20;;;14.80;99.90;;;;;;5095171;28;20195;-62
2023/03/30 02:03:30;;;;;;;1.60;1.10;;;14.80;99.90;;;;;;5096835;28;20227;-60
2023/03/30 02:06:11;;;;;;;1.60;1.27;;;14.70;99.90;;;;;;5097232;28;20238;-61
2023/03/30 02:08:40;;;;;;;4.07;1.73;;;14.60;99.90;;;;;;5098925;28;20681;-60
2023/03/30 02:11:07;;;;;;;4.70;1.33;;;14.60;99.90;;;;;;5079381;28;20668;-62
2023/03/30 02:13:36;;;;;;;2.50;1.33;;;14.60;99.90;;;;;;5089207;28;20284;-60
2023/03/30 02:16:11;;;;;;;3.17;1.17;;;14.50;99.90;;;;;;5096670;28;20194;-60
2023/03/30 02:18:38;;;;;;;2.40;1.27;;;14.40;99.90;;;;;;5099349;28;20231;-61
2023/03/30 02:21:05;;;;;;;3.20;1.37;;;14.30;99.90;;;;;;5075569;28;20205;-61
2023/03/30 02:23:37;;;;;;;2.87;1.67;;;14.30;99.90;;;;;;5097043;28;20289;-61
2023/03/30 02:26:06;;;;;;;7.23;2.70;;;14.30;99.90;;;;;;5098784;28;20201;-61
2023/03/30 02:28:34;;;;;;;3.30;1.40;;;14.30;1.00;;;;;;5095987;28;20200;-61
2023/03/30 02:31:03;;;;;;;2.33;1.27;;;14.20;1.00;;;;;;5094726;28;20201;-61
2023/03/30 02:33:57;;;;;;;1.87;1.00;;;14.20;1.00;;;;;;5088728;28;20206;-61
2023/03/30 02:36:49;;;;;;;2.10;1.23;;;14.30;1.00;;;;;;5095618;28;20294;-62
2023/03/30 02:39:28;;;;;;;3.93;1.10;;;14.30;1.00;;;;;;5097637;28;20306;-62
2023/03/30 02:42:12;;;;;;;2.23;1.33;;;14.40;1.00;;;;;;5094542;28;20213;-60
2023/03/30 02:45:16;;;;;;;3.50;1.37;;;14.40;1.00;;;;;;5093107;28;20217;-60
2023/03/30 02:48:14;;;;;;;2.50;1.00;;;14.40;1.00;;;;;;5096810;27;20269;-65
2023/03/30 02:51:12;;;;;;;3.03;1.20;;;14.40;1.00;;;;;;5095010;27;20202;-59
2023/03/30 02:54:20;;;;;;;3.73;1.20;;;14.40;1.00;;;;;;5098304;28;20201;-62
2023/03/30 02:57:22;;;;;;;1.37;1.13;;;14.40;1.00;;;;;;5046809;28;20297;-60
2023/03/30 02:59:54;;;;;;;3.70;1.60;;;14.40;1.00;;;;;;5095290;27;20641;-60
2023/03/30 03:02:30;;;;;;;4.47;1.00;;;14.40;1.00;;;;;;5095297;28;20208;-61
2023/03/30 03:05:02;;;;;;;3.53;0.97;;;14.40;1.00;;;;;;5094276;28;20213;-59
2023/03/30 03:07:32;;;;;;;2.83;1.10;;;14.40;1.00;;;;;;5098502;28;20224;-60
2023/03/30 03:10:00;;;;;;;2.33;1.03;;;14.40;1.00;;;;;;5098784;28;20202;-61
2023/03/30 03:12:30;;;;;;;3.47;1.00;;;14.40;1.00;;;;;;5097825;28;20371;-62
2023/03/30 03:14:57;;;;;;;3.37;1.27;;;14.30;71.80;;;;;;5096150;28;20290;-61
2023/03/30 03:17:28;;;;;;;2.13;1.00;;;14.30;86.40;;;;;;5075989;28;20265;-62
2023/03/30 03:19:55;;;;;;;3.10;1.40;;;14.30;99.90;;;;;;5094835;28;20207;-59
2023/03/30 03:22:22;;;;;;;3.27;1.00;;;14.20;1.00;;;;;;5095940;28;20584;-59
2023/03/30 03:24:49;;;;;;;2.70;1.10;;;14.10;1.00;;;;;;5077718;28;20260;-60
2023/03/30 03:27:16;;;;;;;3.00;1.20;;;14.10;1.00;;;;;;5092627;28;20201;-60
2023/03/30 03:29:42;;;;;;;4.93;1.20;;;14.00;1.00;;;;;;5096582;28;20198;-59
2023/03/30 03:32:09;;;;;;;2.33;1.10;;;14.00;1.00;;;;;;5089038;28;20647;-59
2023/03/30 03:34:36;;;;;;;5.23;1.00;;;14.00;1.00;;;;;;5091832;28;20744;-59
2023/03/30 03:37:03;;;;;;;1.57;1.07;;;13.90;1.00;;;;;;5096067;28;20239;-59
2023/03/30 03:39:30;;;;;;;3.23;1.30;;;13.90;1.00;;;;;;5097352;28;20208;-60
2023/03/30 03:41:57;;;;;;;4.77;1.10;;;14.00;99.90;;;;;;5098237;28;20212;-61
2023/03/30 03:44:24;;;;;;;1.87;1.20;;;14.00;99.90;;;;;;5093377;28;20288;-59
2023/03/30 03:46:51;;;;;;;4.73;1.63;;;13.90;99.90;;;;;;5077906;28;20208;-59
2023/03/30 03:49:18;;;;;;;4.37;1.57;;;13.90;99.90;;;;;;5096415;28;20201;-59
2023/03/30 03:51:45;;;;;;;3.63;1.10;;;13.90;99.90;;;;;;5072148;28;20276;-59
2023/03/30 03:54:11;;;;;;;3.07;1.40;;;13.90;99.90;;;;;;5074249;28;20662;-59
2023/03/30 03:56:38;;;;;;;4.00;1.10;;;13.90;99.90;;;;;;5100023;28;20232;-59
2023/03/30 03:59:05;;;;;;;2.80;1.30;;;13.90;99.90;;;;;;5092121;28;20202;-59
2023/03/30 04:01:32;;;;;;;1.80;1.30;;;13.90;1.00;;;;;;5098999;27;20725;-60
2023/03/30 04:04:00;;;;;;;4.60;1.47;;;13.90;1.00;;;;;;5099702;27;20213;-59
2023/03/30 04:06:26;;;;;;;4.07;1.40;;;13.90;1.00;;;;;;5098518;28;20196;-61
2023/03/30 04:08:53;;;;;;;5.40;1.57;;;13.90;1.00;;;;;;5104923;28;20293;-60
2023/03/30 04:11:21;;;;;;;4.90;1.43;;;14.00;1.00;;;;;;5104517;28;20200;-62
2023/03/30 04:13:48;;;;;;;4.67;1.73;;;13.90;1.00;;;;;;5099646;28;20250;-60
2023/03/30 04:16:15;;;;;;;4.40;1.30;;;13.90;1.00;;;;;;5097294;28;20196;-60
2023/03/30 04:18:42;;;;;;;1.77;1.20;;;13.80;1.00;;;;;;5102183;27;20272;-60
2023/03/30 04:21:11;;;;;;;6.00;1.70;;;13.80;1.00;;;;;;5099604;28;20607;-60
2023/03/30 04:23:44;;;;;;;3.53;1.73;;;13.70;1.00;;;;;;5102800;28;20218;-60
2023/03/30 04:26:12;;;;;;;4.37;1.80;;;13.50;69.60;;;;;;5101262;27;20209;-60
2023/03/30 04:28:39;;;;;;;4.03;1.67;;;13.40;1.00;;;;;;5102838;27;20202;-63
2023/03/30 04:31:11;;;;;;;4.93;2.00;;;13.30;99.90;;;;;;5100026;28;20203;-60
2023/03/30 04:33:49;;;;;;;5.43;2.00;;;13.20;1.00;;;;;;5103006;27;20633;-60
2023/03/30 04:36:19;;;;;;;3.63;2.10;;;13.20;1.00;;;;;;5098923;28;20201;-60
2023/03/30 04:38:59;;;;;;;4.03;1.63;;;13.20;1.00;;;;;;5103216;28;20201;-60
2023/03/30 04:41:34;;;;;;;2.67;1.40;;;13.20;99.90;;;;;;5102382;28;20250;-60
2023/03/30 04:44:03;;;;;;;2.87;1.87;;;13.20;99.90;;;;;;5101716;28;20216;-60
2023/03/30 04:46:31;;;;;;;3.90;1.63;;;13.20;99.90;;;;;;5099251;27;20197;-60
2023/03/30 04:48:58;;;;;;;2.57;1.47;;;13.10;1.00;;;;;;5101499;28;20239;-59
2023/03/30 04:51:25;;;;;;;2.73;1.90;;;13.10;1.00;;;;;;5099919;27;20273;-60
2023/03/30 04:53:51;;;;;;;3.07;1.40;;;13.10;99.90;;;;;;5102665;27;20208;-60
2023/03/30 04:56:20;;;;;;;5.13;1.57;;;13.10;1.00;;;;;;5099904;27;20273;-60
2023/03/30 04:58:47;;;;;;;8.03;1.47;;;13.10;1.00;;;;;;5100342;27;20204;-60
2023/03/30 05:01:14;;;;;;;7.67;1.70;;;13.00;1.00;;;;;;5100706;28;20224;-60
2023/03/30 05:03:41;;;;;;;6.43;2.40;;;13.00;1.00;;;;;;5099878;27;20254;-60
2023/03/30 05:06:08;;;;;;;3.30;1.80;;;13.00;1.00;;;;;;5100103;27;20247;-60
2023/03/30 05:08:35;;;;;;;5.60;1.60;;;13.00;80.30;;;;;;5090221;28;20245;-60
2023/03/30 05:11:03;;;;;;;8.23;1.90;;;12.90;25.80;;;;;;5099763;28;20560;-60
2023/03/30 05:13:31;;;;;;;2.63;1.50;;;13.00;99.90;;;;;;5090869;28;20197;-60
2023/03/30 05:15:58;;;;;;;6.10;1.83;;;12.90;1.00;;;;;;5097628;28;20241;-60
2023/03/30 05:18:25;;;;;;;3.77;1.67;;;12.90;1.00;;;;;;5098650;28;20638;-60
2023/03/30 05:20:56;;;;;;;3.47;1.73;;;12.90;99.90;;;;;;5089172;28;20292;-60
2023/03/30 05:23:23;;;;;;;8.53;1.80;;;12.90;99.90;;;;;;5099710;28;20196;-60
2023/03/30 05:25:50;;;;;;;6.07;2.00;;;12.90;1.00;;;;;;5099181;27;20549;-63
2023/03/30 05:28:17;;;;;;;5.20;2.03;;;12.90;1.00;;;;;;5092943;28;20250;-60
2023/03/30 05:30:45;;;;;;;4.73;1.70;;;12.80;1.00;;;;;;5076493;28;20209;-59
2023/03/30 05:33:12;;;;;;;7.60;2.07;;;12.80;99.90;;;;;;5090070;28;20200;-60
2023/03/30 05:35:39;;;;;;;3.87;1.50;;;12.80;99.90;;;;;;5097254;28;20208;-61
2023/03/30 05:38:07;;;;;;;6.60;1.70;;;12.80;99.90;;;;;;5099944;28;20698;-60
2023/03/30 05:40:34;;;;;;;6.33;1.90;;;12.80;1.00;;;;;;5097955;28;20639;-60
2023/03/30 05:43:01;;;;;;;9.87;2.53;;;12.70;1.00;;;;;;5095475;27;20207;-60
2023/03/30 05:45:28;;;;;;;5.40;1.93;;;12.70;1.00;;;;;;5080554;28;20218;-60
2023/03/30 05:47:55;;;;;;;4.10;1.90;;;12.70;1.00;;;;;;5092202;28;20201;-60
2023/03/30 05:50:22;;;;;;;4.50;1.83;;;12.70;1.00;;;;;;5088802;27;20284;-59
2023/03/30 05:52:49;;;;;;;6.30;1.93;;;12.70;1.00;;;;;;5091030;28;20202;-60
2023/03/30 05:55:16;;;;;;;6.83;2.27;;;12.70;1.00;;;;;;5088893;28;20300;-60
2023/03/30 05:57:44;;;;;;;4.37;2.10;;;12.70;99.90;;;;;;5092226;28;20287;-61
2023/03/30 06:00:13;;;;;;;6.83;2.43;;;12.60;1.00;;;;;;5088382;28;20227;-60
2023/03/30 06:02:40;;;;;;;3.27;2.07;;;12.60;14.90;;;;;;5099813;28;20235;-60
2023/03/30 06:05:08;;;;;;;7.20;2.63;;;12.60;1.00;;;;;;5094451;28;20216;-60
2023/03/30 06:07:36;;;;;;;5.00;2.03;;;12.50;1.00;;;;;;5093032;28;20255;-60
2023/03/30 06:10:04;;;;;;;6.27;2.30;;;12.50;33.10;;;;;;5097310;28;20308;-60
2023/03/30 06:12:32;;;;;;;5.73;1.80;;;12.50;1.00;;;;;;5095016;28;20232;-60
2023/03/30 06:15:01;;;;;;;7.03;2.23;;;12.50;1.00;;;;;;5085267;28;20634;-60
2023/03/30 06:17:29;;;;;;;5.37;2.27;;;12.40;1.00;;;;;;5091322;28;20842;-60
2023/03/30 06:19:56;;;;;;;6.63;2.63;;;12.40;1.00;;;;;;5095502;28;20300;-61
2023/03/30 06:22:22;;;;;;;9.13;2.30;;;12.40;90.60;;;;;;5097129;28;20249;-60
2023/03/30 06:24:50;;;;;;;5.50;1.77;;;12.40;99.90;;;;;;5099097;28;20238;-61
2023/03/30 06:27:17;;;;;;;6.43;2.00;;;12.40;1.00;;;;;;5099263;27;20234;-60
2023/03/30 06:29:44;;;;;;;6.93;2.03;;;12.40;1.00;;;;;;5096683;28;20735;-60
2023/03/30 06:32:10;;;;;;;6.93;1.90;;;12.40;1.00;;;;;;5094858;28;20227;-61
2023/03/30 06:34:37;;;;;;;7.20;2.07;;;12.50;99.90;;;;;;5086546;28;20265;-61
2023/03/30 06:37:07;;;;;;;9.13;2.20;;;12.50;1.00;;;;;;5091379;28;20706;-61
2023/03/30 06:39:36;;;;;;;5.67;2.23;;;12.50;1.00;;;;;;5096281;28;20208;-60
2023/03/30 06:42:04;;;;;;;7.70;3.40;;;12.50;1.00;;;;;;5084231;28;20215;-60
2023/03/30 06:44:33;;;;;;;8.40;2.17;;;12.50;1.00;;;;;;5092820;28;20316;-61
2023/03/30 06:47:00;;;;;;;8.77;2.30;;;12.50;1.00;;;;;;5095084;28;20196;-61
2023/03/30 06:49:27;;;;;;;6.13;1.73;;;12.50;1.00;;;;;;5094978;28;20203;-61
2023/03/30 06:51:54;;;;;;;6.00;1.97;;;12.50;1.00;;;;;;5095045;27;20217;-60
2023/03/30 06:54:21;;;;;;;11.67;2.20;;;12.60;1.00;;;;;;5095277;28;20293;-60
2023/03/30 06:56:48;;;;;;;11.20;2.17;;;12.60;99.90;;;;;;5071644;28;20742;-60
2023/03/30 06:59:16;;;;;;;8.80;2.10;;;12.60;1.00;;;;;;5096486;28;20920;-61
2023/03/30 07:01:43;;;;;;;7.27;1.87;;;12.70;99.90;;;;;;5096348;28;20195;-60
2023/03/30 07:04:10;;;;;;;8.33;2.73;;;12.80;59.80;;;;;;5086421;28;20303;-61
2023/03/30 07:06:37;;;;;;;10.03;1.90;;;12.90;1.00;;;;;;5093145;28;20594;-60
2023/03/30 07:09:07;;;;;;;8.23;1.93;;;13.10;46.00;;;;;;5093144;28;20235;-60
2023/03/30 07:11:33;;;;;;;7.37;1.87;;;13.30;1.00;;;;;;5076922;28;20253;-61
2023/03/30 07:14:01;;;;;;;7.47;2.13;;;13.50;1.00;;;;;;5092513;28;20358;-61
2023/03/30 07:16:28;;;;;;;10.77;2.30;;;13.40;99.90;;;;;;5092830;28;20743;-61
2023/03/30 07:18:55;;;;;;;10.60;2.07;;;13.30;1.00;;;;;;5091815;28;20649;-61
2023/03/30 07:21:22;;;;;;;7.77;2.10;;;13.50;99.90;;;;;;5087684;28;20224;-60
2023/03/30 07:23:49;;;;;;;9.67;2.30;;;13.50;99.90;;;;;;5095544;28;20208;-61
2023/03/30 07:26:16;;;;;;;9.00;1.67;;;13.70;1.00;;;;;;5096625;28;20283;-61
2023/03/30 07:28:45;;;;;;;5.80;2.47;;;13.80;1.00;;;;;;5080102;28;20214;-60
2023/03/30 07:31:13;;;;;;;10.90;1.80;;;13.70;1.00;;;;;;5094305;28;20198;-60
2023/03/30 07:33:40;;;;;;;6.60;1.60;;;13.60;1.00;;;;;;5094569;28;20652;-61
2023/03/30 07:36:07;;;;;;;6.97;1.70;;;13.50;1.00;;;;;;5095801;28;20600;-60
2023/03/30 07:38:34;;;;;;;9.40;2.03;;;13.30;1.00;;;;;;5095142;28;20702;-60
2023/03/30 07:41:06;;;;;;;9.63;2.10;;;13.30;1.00;;;;;;5091346;28;20204;-60
2023/03/30 07:43:33;;;;;;;8.13;1.93;;;13.40;82.80;;;;;;5077057;28;20196;-61
2023/03/30 07:46:00;;;;;;;9.23;1.80;;;13.20;61.10;;;;;;5096611;28;20210;-61
2023/03/30 07:48:27;;;;;;;7.83;2.10;;;13.20;11.00;;;;;;5095745;28;20209;-61
2023/03/30 07:51:08;;;;;;;8.13;3.17;;;13.10;99.90;;;;;;5088425;28;20281;-61
2023/03/30 07:53:35;;;;;;;7.47;1.97;;;13.10;99.90;;;;;;5094614;28;20224;-61
2023/03/30 07:56:03;;;;;;;8.27;2.30;;;13.20;99.90;;;;;;5093592;28;20392;-60
2023/03/30 07:58:30;;;;;;;9.73;2.13;;;13.20;99.90;;;;;;5092661;28;20655;-60
2023/03/30 08:00:58;;;;;;;7.00;2.43;;;13.20;99.90;;;;;;5089036;28;20567;-60
2023/03/30 08:03:24;;;;;;;8.93;2.20;;;13.20;99.90;;;;;;5093083;28;20310;-60
2023/03/30 08:05:59;;;;;;;7.07;2.40;;;13.20;99.90;;;;;;5093522;28;20562;-61
2023/03/30 08:08:27;;;;;;;10.43;2.77;;;13.20;25.20;;;;;;5091491;28;20270;-60
2023/03/30 08:10:53;;;;;;;7.87;2.80;;;13.10;99.90;;;;;;5089233;28;20289;-60
2023/03/30 08:13:20;;;;;;;10.73;2.20;;;13.10;99.90;;;;;;5070914;28;20678;-61
2023/03/30 08:15:48;;;;;;;8.40;2.13;;;13.10;99.90;;;;;;5092679;28;20229;-60
2023/03/30 08:18:15;;;;;;;9.93;2.77;;;13.10;99.90;;;;;;5095705;28;20262;-60
2023/03/30 08:20:42;;;;;;;9.40;1.80;;;13.20;99.90;;;;;;5094928;28;20201;-60
2023/03/30 08:23:10;;;;;;;9.43;2.47;;;13.40;99.90;;;;;;5095475;28;20312;-60
2023/03/30 08:25:37;;;;;;;10.33;2.47;;;13.40;52.10;;;;;;5083811;28;20234;-61
2023/03/30 08:28:04;;;;;;;10.50;2.70;;;13.40;1.00;;;;;;5094615;28;20296;-61
2023/03/30 08:30:32;;;;;;;11.67;2.87;;;13.40;1.00;;;;;;5094304;28;20525;-62
2023/03/30 08:32:59;;;;;;;11.43;2.33;;;13.40;1.00;;;;;;5095764;28;20253;-63
2023/03/30 08:35:26;;;;;;;14.27;3.50;;;13.40;1.00;;;;;;5092379;28;20268;-60
2023/03/30 08:37:54;;;;;;;11.40;2.00;;;13.40;1.00;;;;;;5095264;28;20194;-61
2023/03/30 08:40:21;;;;;;;9.33;1.97;;;13.50;1.00;;;;;;5075507;28;20384;-60
2023/03/30 08:43:10;;;;;;;20.00;2.80;;;13.70;1.00;;;;;;5079605;28;20207;-60
2023/03/30 08:45:39;;;;;;;10.57;2.57;;;13.90;1.00;;;;;;5098196;28;20254;-61
2023/03/30 08:48:21;;;;;;;7.17;1.97;;;13.90;99.90;;;;;;5097742;28;20282;-61
2023/03/30 08:51:01;;;;;;;6.60;1.83;;;14.00;99.90;;;;;;5097597;28;20202;-61
2023/03/30 08:53:32;;;;;;;5.53;1.70;;;13.90;99.90;;;;;;5098245;28;20200;-62
2023/03/30 08:56:13;;;;;;;9.03;2.23;;;14.10;99.90;;;;;;5074759;28;20256;-63
2023/03/30 08:59:10;;;;;;;8.03;1.80;;;14.10;7.50;;;;;;5092430;27;21215;-61
2023/03/30 09:02:11;;;;;;;5.47;1.80;;;14.00;1.00;;;;;;5093121;28;20340;-61
2023/03/30 09:05:00;;;;;;;10.33;2.07;;;13.90;61.50;;;;;;5076086;28;20707;-61
2023/03/30 09:07:31;;;;;;;10.33;2.37;;;13.80;99.90;;;;;;5093904;28;20208;-61
2023/03/30 09:09:59;;;;;;;7.83;2.20;;;13.80;99.90;;;;;;5093651;28;20762;-61
2023/03/30 09:12:36;;;;;;;12.90;3.37;;;14.10;99.90;;;;;;5095139;28;20631;-63
2023/03/30 09:15:17;;;;;;;6.83;2.57;;;14.30;1.00;;;;;;5090672;28;20214;-61
2023/03/30 09:17:49;;;;;;;11.70;2.50;;;14.20;1.00;;;;;;5094921;28;20346;-61
2023/03/30 09:20:21;;;;;;;14.07;2.53;;;13.90;36.60;;;;;;5096298;28;20196;-61
2023/03/30 09:22:49;;;;;;;10.20;2.50;;;14.10;1.00;;;;;;5081105;28;20551;-61
2023/03/30 09:25:22;;;;;;;13.37;2.70;;;14.20;1.00;;;;;;5096107;28;20339;-61
2023/03/30 09:27:57;;;;;;;10.27;2.37;;;14.00;1.00;;;;;;5099591;28;20204;-61
2023/03/30 09:30:33;;;;;;;11.90;2.37;;;14.20;1.00;;;;;;5098203;28;20208;-61
2023/03/30 09:33:23;;;;;;;11.03;2.40;;;14.20;1.00;;;;;;5093298;28;20302;-61
2023/03/30 09:36:12;;;;;;;15.23;2.60;;;14.10;1.00;;;;;;5098624;28;20240;-61
2023/03/30 09:38:40;;;;;;;9.63;2.00;;;14.20;1.00;;;;;;5095837;28;20209;-60
2023/03/30 09:41:29;;;;;;;7.37;2.80;;;14.30;1.00;;;;;;5093799;28;20318;-61
2023/03/30 09:43:58;;;;;;;7.57;2.00;;;14.40;1.00;;;;;;5087741;28;20254;-61
2023/03/30 09:46:25;;;;;;;10.40;2.00;;;14.30;1.00;;;;;;5094205;28;20294;-63
2023/03/30 09:48:52;;;;;;;13.13;2.83;;;14.30;1.00;;;;;;5094021;28;20202;-61
2023/03/30 09:51:25;;;;;;;11.03;3.20;;;14.40;1.00;;;;;;5095202;28;20212;-62
2023/03/30 09:54:02;;;;;;;13.37;2.40;;;14.80;1.00;;;;;;5092974;28;20303;-61
2023/03/30 09:56:43;;;;;;;9.40;2.30;;;15.10;1.00;;;;;;5089737;28;20230;-61
2023/03/30 09:59:26;;;;;;;12.23;2.73;;;15.40;1.00;;;;;;5077408;28;20205;-61
2023/03/30 10:02:18;;;;;;;12.37;2.77;;;15.00;99.90;;;;;;5096083;28;20752;-61
2023/03/30 10:04:55;;;;;;;12.50;2.83;;;15.30;1.00;;;;;;5094548;28;20577;-61
2023/03/30 10:07:29;;;;;;;10.70;2.47;;;15.20;1.00;;;;;;5075636;28;20207;-61
2023/03/30 10:09:58;;;;;;;13.43;2.87;;;14.80;1.00;;;;;;5094987;28;20724;-60
2023/03/30 10:12:27;;;;;;;13.20;2.90;;;14.90;1.00;;;;;;5091532;28;20200;-61
2023/03/30 10:14:56;;;;;;;15.67;2.80;;;14.80;1.00;;;;;;5090152;28;20726;-61
2023/03/30 10:17:25;;;;;;;14.83;3.03;;;14.70;1.00;;;;;;5093753;28;20236;-61
2023/03/30 10:20:13;;;;;;;9.20;3.27;;;14.70;1.00;;;;;;5095524;28;20233;-60
2023/03/30 10:23:04;;;;;;;10.47;2.80;;;14.80;1.00;;;;;;5096242;28;20258;-61
2023/03/30 10:25:32;;;;;;;12.50;2.73;;;14.80;1.00;;;;;;5093035;27;20222;-61
2023/03/30 10:28:03;;;;;;;11.17;2.63;;;15.00;1.00;;;;;;5094787;28;20209;-59
2023/03/30 10:30:31;;;;;;;14.10;2.80;;;15.20;1.00;;;;;;5092969;28;20305;-60
2023/03/30 10:33:01;;;;;;;10.80;2.40;;;15.10;1.00;;;;;;5072627;28;20287;-62
2023/03/30 10:35:37;;;;;;;11.57;2.30;;;14.80;1.00;;;;;;5091497;28;20210;-60
2023/03/30 10:38:06;;;;;;;11.33;2.63;;;14.70;1.00;;;;;;5096161;28;20238;-60
2023/03/30 10:40:36;;;;;;;12.53;2.70;;;14.80;1.00;;;;;;5092490;28;20705;-59
2023/03/30 10:43:07;;;;;;;10.77;2.30;;;15.00;1.00;;;;;;5089983;28;20339;-60
2023/03/30 10:45:43;;;;;;;7.97;2.63;;;15.10;1.00;;;;;;5091301;28;20240;-61
2023/03/30 10:48:19;;;;;;;10.17;2.70;;;15.10;1.00;;;;;;5093687;28;20201;-60
2023/03/30 10:50:54;;;;;;;9.20;2.00;;;15.00;1.00;;;;;;5090567;28;20233;-60
2023/03/30 10:53:38;;;;;;;12.90;2.30;;;15.10;1.00;;;;;;5088558;28;20209;-60
2023/03/30 10:56:14;;;;;;;12.87;2.50;;;15.00;99.90;;;;;;5091291;28;20690;-60
2023/03/30 10:58:56;;;;;;;9.87;2.20;;;15.00;1.00;;;;;;5094364;28;20597;-60
2023/03/30 11:01:47;;;;;;;13.43;2.73;;;15.10;1.00;;;;;;5093053;28;20639;-60
2023/03/30 11:04:21;;;;;;;11.37;2.13;;;15.80;1.00;;;;;;5093524;28;20229;-61
2023/03/30 11:06:54;;;;;;;9.67;2.20;;;15.90;99.90;;;;;;5075242;28;20215;-60
2023/03/30 11:09:36;;;;;;;11.50;2.07;;;16.00;99.90;;;;;;5085337;28;20196;-61
2023/03/30 11:12:18;;;;;;;8.23;2.87;;;16.40;99.90;;;;;;5087974;28;20732;-60
2023/03/30 11:14:54;;;;;;;7.43;2.00;;;16.40;49.10;;;;;;5094094;28;20198;-63
2023/03/30 11:17:27;;;;;;;11.63;2.23;;;16.30;1.00;;;;;;5095886;28;20201;-61
2023/03/30 11:19:56;;;;;;;12.17;2.63;;;15.60;99.90;;;;;;5096848;28;20205;-61
2023/03/30 11:22:40;;;;;;;9.93;2.00;;;15.50;99.90;;;;;;5096604;28;20872;-60
2023/03/30 11:25:22;;;;;;;9.93;2.53;;;15.40;99.90;;;;;;5094948;27;20203;-61
2023/03/30 11:27:58;;;;;;;8.10;1.87;;;16.00;99.90;;;;;;5095647;28;20284;-61
2023/03/30 11:30:28;;;;;;;8.90;2.47;;;16.30;99.90;;;;;;5090786;28;20213;-61
2023/03/30 11:33:33;;;;;;;13.57;2.57;;;16.40;99.90;;;;;;5094328;28;20324;-61
2023/03/30 11:36:09;;;;;;;13.57;2.37;;;16.70;99.90;;;;;;5083629;28;20329;-60
2023/03/30 11:38:58;;;;;;;10.77;2.00;;;16.40;1.00;;;;;;5077035;28;20203;-60
2023/03/30 11:41:41;;;;;;;10.20;1.60;;;16.00;48.10;;;;;;5084143;28;20204;-62
2023/03/30 11:44:09;;;;;;;6.50;1.70;;;16.00;99.90;;;;;;5093698;28;20719;-60
2023/03/30 11:47:07;;;;;;;7.13;1.90;;;16.30;99.90;;;;;;5090976;28;20342;-60
2023/03/30 11:50:00;;;;;;;5.63;1.60;;;16.30;99.90;;;;;;5093891;28;20198;-60
2023/03/30 11:52:42;;;;;;;8.30;2.07;;;16.20;99.90;;;;;;5080608;28;20198;-59
2023/03/30 11:55:24;;;;;;;7.43;1.67;;;15.90;99.90;;;;;;5086852;28;20237;-60
2023/03/30 11:58:25;;;;;;;6.23;2.50;;;15.40;99.90;;;;;;5090178;28;20203;-63
2023/03/30 12:01:11;;;;;;;8.97;2.60;;;15.20;1.00;;;;;;5087001;28;20342;-60
2023/03/30 12:03:45;;;;;;;8.97;1.93;;;15.50;1.00;;;;;;5095126;28;20209;-66
2023/03/30 12:06:20;;;;;;;13.73;2.43;;;15.60;1.00;;;;;;5088202;28;20220;-60
2023/03/30 12:09:20;;;;;;;11.57;1.90;;;15.40;1.00;;;;;;5094538;28;20205;-60
2023/03/30 12:12:02;;;;;;;6.00;1.83;;;15.20;1.00;;;;;;5083152;28;20206;-60
2023/03/30 12:14:52;;;;;;;7.93;1.90;;;15.20;1.00;;;;;;5090017;28;20892;-60
2023/03/30 12:17:41;;;;;;;10.90;2.03;;;15.60;99.90;;;;;;5090046;28;20214;-61
2023/03/30 12:20:08;;;;;;;8.27;2.43;;;15.60;99.90;;;;;;5086601;28;20210;-60
2023/03/30 12:23:01;;;;;;;8.80;2.00;;;15.50;1.00;;;;;;5091646;28;20210;-60
2023/03/30 12:26:08;;;;;;;6.57;1.57;;;15.30;1.00;;;;;;5092226;28;20833;-59
2023/03/30 12:28:44;;;;;;;11.40;2.10;;;15.40;1.00;;;;;;5071676;28;20208;-60
2023/03/30 12:32:02;;;;;;;11.23;1.83;;;15.40;99.90;;;;;;5079874;28;20199;-60
2023/03/30 12:34:35;;;;;;;7.50;2.17;;;15.40;99.90;;;;;;5067772;28;20194;-67
2023/03/30 12:37:21;;;;;;;12.00;2.07;;;15.50;99.90;;;;;;5071989;28;20502;-60
2023/03/30 12:39:56;;;;;;;6.80;1.53;;;15.50;99.90;;;;;;5090617;28;20295;-60
2023/03/30 12:42:33;;;;;;;7.63;1.90;;;15.40;99.90;;;;;;5090903;28;20225;-60
2023/03/30 12:45:12;;;;;;;6.33;2.07;;;15.50;99.90;;;;;;5083149;28;20206;-61
2023/03/30 12:47:47;;;;;;;7.20;1.50;;;15.60;99.90;;;;;;5074606;28;20808;-63
2023/03/30 12:50:30;;;;;;;7.97;2.10;;;15.40;99.90;;;;;;5071975;28;20630;-60
2023/03/30 12:53:35;;;;;;;7.20;1.77;;;15.40;99.90;;;;;;5090354;28;20207;-60
2023/03/30 12:56:19;;;;;;;10.67;3.30;;;15.30;1.00;;;;;;5091934;28;20235;-61
2023/03/30 12:59:07;;;;;;;11.53;2.37;;;15.00;1.00;;;;;;5077183;28;20191;-60
2023/03/30 13:01:46;;;;;;;8.73;2.10;;;15.10;1.00;;;;;;5067735;28;20312;-60
2023/03/30 13:04:23;;;;;;;8.67;2.07;;;15.70;1.00;;;;;;5072026;28;20208;-61
2023/03/30 13:06:58;;;;;;;14.17;2.40;;;15.70;99.90;;;;;;5086640;28;20304;-60
2023/03/30 13:09:25;;;;;;;9.10;2.10;;;16.10;1.00;;;;;;5091982;28;20210;-60
2023/03/30 13:11:52;;;;;;;17.53;3.07;;;16.50;99.90;;;;;;5087914;28;20211;-60
2023/03/30 13:14:38;;;;;;;11.70;2.53;;;16.40;99.90;;;;;;5087167;28;20306;-59
2023/03/30 13:17:16;;;;;;;8.83;2.77;;;16.30;99.90;;;;;;5081909;28;20640;-59
2023/03/30 13:20:03;;;;;;;10.40;2.73;;;16.50;1.00;;;;;;5087355;28;20215;-60
2023/03/30 13:22:35;;;;;;;7.80;2.07;;;16.70;1.00;;;;;;5091094;28;20273;-60